createdAt,value
2018-07-08T00:01:50.274Z,17.94
2018-07-08T00:04:19.577Z,18.09
2018-07-08T00:06:49.642Z,18.27
2018-07-08T00:09:18.906Z,18.05
2018-07-08T00:11:48.308Z,18.06
2018-07-08T00:14:17.705Z,17.80
2018-07-08T00:16:47.096Z,17.58
2018-07-08T00:19:16.369Z,17.27
2018-07-08T00:21:45.616Z,17.59
2018-07-08T00:24:14.880Z,17.70
2018-07-08T00:26:44.217Z,17.69
2018-07-08T00:29:13.594Z,17.58
2018-07-08T00:31:43.095Z,17.69
2018-07-08T00:34:12.409Z,17.66
2018-07-08T00:36:41.673Z,17.64
2018-07-08T00:39:11.228Z,17.81
2018-07-08T00:41:40.484Z,17.74
2018-07-08T00:44:09.724Z,17.74
2018-07-08T00:46:39.232Z,17.65
2018-07-08T00:49:08.745Z,17.33
2018-07-08T00:51:38.008Z,16.74
2018-07-08T00:54:07.436Z,16.15
2018-07-08T00:56:36.711Z,16.41
2018-07-08T00:59:06.921Z,16.67
2018-07-08T01:01:36.384Z,16.87
2018-07-08T01:04:05.709Z,16.99
2018-07-08T01:06:35.070Z,16.92
2018-07-08T01:09:04.997Z,16.98
2018-07-08T01:11:34.286Z,16.57
2018-07-08T01:14:03.636Z,16.72
2018-07-08T01:16:32.919Z,16.03
2018-07-08T01:19:02.165Z,15.91
2018-07-08T01:21:31.463Z,16.12
2018-07-08T01:24:00.749Z,16.11
2018-07-08T01:26:30.164Z,16.06
2018-07-08T01:28:59.611Z,16.17
2018-07-08T01:31:28.888Z,16.05
2018-07-08T01:33:58.226Z,16.19
2018-07-08T01:36:27.516Z,15.77
2018-07-08T01:38:56.913Z,15.60
2018-07-08T01:41:26.159Z,15.44
2018-07-08T01:43:55.459Z,15.73
2018-07-08T01:46:24.772Z,15.61
2018-07-08T01:48:54.140Z,15.36
2018-07-08T01:51:23.422Z,15.25
2018-07-08T01:53:52.901Z,15.31
2018-07-08T01:56:22.179Z,15.54
2018-07-08T01:58:51.590Z,15.67
2018-07-08T02:01:20.840Z,15.69
2018-07-08T02:03:50.305Z,15.95
2018-07-08T02:06:19.625Z,15.87
2018-07-08T02:08:49.242Z,15.76
2018-07-08T02:11:18.598Z,15.47
2018-07-08T02:13:47.940Z,15.39
2018-07-08T02:16:17.289Z,15.42
2018-07-08T02:18:46.619Z,15.43
2018-07-08T02:21:16.060Z,15.62
2018-07-08T02:23:45.911Z,15.74
2018-07-08T02:26:15.445Z,15.74
2018-07-08T02:28:44.701Z,15.64
2018-07-08T02:31:14.132Z,15.53
2018-07-08T02:33:43.396Z,15.65
2018-07-08T02:36:12.694Z,15.42
2018-07-08T02:38:41.975Z,15.17
2018-07-08T02:41:11.398Z,15.80
2018-07-08T02:43:40.678Z,15.52
2018-07-08T02:46:10.037Z,15.59
2018-07-08T02:48:40.439Z,15.67
2018-07-08T02:51:09.715Z,15.60
2018-07-08T02:53:39.003Z,15.18
2018-07-08T02:56:08.369Z,15.49
2018-07-08T02:58:40.672Z,15.43
2018-07-08T03:01:10.033Z,15.47
2018-07-08T03:03:39.316Z,15.26
2018-07-08T03:06:08.788Z,15.36
2018-07-08T03:08:38.196Z,15.03
2018-07-08T03:11:07.554Z,15.47
2018-07-08T03:13:37.006Z,15.54
2018-07-08T03:16:06.648Z,15.65
2018-07-08T03:18:36.107Z,15.68
2018-07-08T03:21:05.382Z,15.63
2018-07-08T03:23:34.902Z,15.97
2018-07-08T03:26:04.238Z,15.90
2018-07-08T03:28:33.561Z,15.42
2018-07-08T03:31:02.879Z,15.88
2018-07-08T03:33:32.335Z,15.13
2018-07-08T03:36:01.591Z,15.26
2018-07-08T03:38:31.009Z,15.40
2018-07-08T03:41:00.389Z,15.34
2018-07-08T03:43:29.752Z,15.41
2018-07-08T03:45:59.174Z,15.52
2018-07-08T03:48:28.551Z,15.73
2018-07-08T03:50:57.938Z,15.49
2018-07-08T03:53:27.369Z,15.37
2018-07-08T03:55:56.866Z,15.33
2018-07-08T03:58:26.377Z,15.45
2018-07-08T04:00:55.660Z,15.89
2018-07-08T04:03:25.109Z,15.80
2018-07-08T04:05:54.886Z,15.53
2018-07-08T04:08:24.293Z,15.88
2018-07-08T04:10:53.641Z,16.30
2018-07-08T04:13:23.013Z,16.14
2018-07-08T04:15:52.354Z,16.13
2018-07-08T04:18:21.698Z,16.10
2018-07-08T04:20:51.044Z,16.17
2018-07-08T04:23:20.342Z,16.20
2018-07-08T04:25:49.748Z,15.49
2018-07-08T04:28:19.105Z,15.59
2018-07-08T04:30:48.541Z,15.38
2018-07-08T04:33:17.823Z,15.53
2018-07-08T04:35:47.107Z,15.95
2018-07-08T04:38:16.492Z,14.94
2018-07-08T04:40:45.812Z,15.60
2018-07-08T04:43:15.141Z,15.64
2018-07-08T04:45:45.568Z,15.99
2018-07-08T04:48:14.980Z,16.22
2018-07-08T04:50:44.436Z,16.57
2018-07-08T04:53:13.782Z,15.97
2018-07-08T04:55:43.070Z,16.01
2018-07-08T04:58:12.470Z,15.92
2018-07-08T05:00:41.888Z,15.94
2018-07-08T05:03:11.477Z,15.81
2018-07-08T05:05:40.782Z,15.54
2018-07-08T05:08:10.292Z,15.95
2018-07-08T05:10:39.582Z,15.74
2018-07-08T05:13:08.997Z,15.97
2018-07-08T05:15:38.315Z,16.56
2018-07-08T05:18:07.908Z,16.84
2018-07-08T05:20:37.284Z,17.25
2018-07-08T05:23:06.819Z,17.79
2018-07-08T05:25:36.202Z,18.24
2018-07-08T05:28:05.936Z,18.81
2018-07-08T05:30:35.982Z,19.14
2018-07-08T05:33:05.366Z,18.98
2018-07-08T05:35:34.915Z,19.21
2018-07-08T05:38:04.481Z,19.57
2018-07-08T05:40:33.771Z,20.89
2018-07-08T05:43:03.163Z,21.56
2018-07-08T05:45:32.455Z,21.25
2018-07-08T05:48:01.879Z,21.48
2018-07-08T05:50:31.290Z,20.96
2018-07-08T05:53:00.598Z,22.01
2018-07-08T05:55:30.108Z,22.71
2018-07-08T05:57:59.524Z,22.96
2018-07-08T06:00:28.869Z,23.68
2018-07-08T06:02:58.361Z,23.53
2018-07-08T06:05:27.686Z,23.34
2018-07-08T06:07:57.053Z,23.47
2018-07-08T06:10:26.350Z,22.57
2018-07-08T06:12:55.647Z,22.95
2018-07-08T06:15:25.124Z,22.93
2018-07-08T06:17:54.626Z,24.85
2018-07-08T06:20:24.006Z,23.88
2018-07-08T06:22:53.334Z,24.01
2018-07-08T06:25:22.765Z,24.84
2018-07-08T06:27:52.033Z,24.58
2018-07-08T06:30:22.540Z,24.04
2018-07-08T06:32:51.984Z,24.26
2018-07-08T06:35:21.328Z,24.37
2018-07-08T06:37:50.777Z,26.28
2018-07-08T06:40:20.295Z,26.42
2018-07-08T06:42:49.585Z,26.15
2018-07-08T06:45:18.980Z,26.06
2018-07-08T06:47:48.463Z,26.05
2018-07-08T06:50:17.885Z,26.08
2018-07-08T06:52:47.360Z,26.47
2018-07-08T06:55:16.704Z,27.07
2018-07-08T06:57:46.071Z,27.21
2018-07-08T07:02:45.828Z,26.58
2018-07-08T07:05:15.368Z,27.54
2018-07-08T07:07:44.799Z,26.92
2018-07-08T07:10:14.181Z,27.17
2018-07-08T07:12:43.542Z,26.69
2018-07-08T07:15:12.895Z,28.07
2018-07-08T07:17:42.447Z,28.14
2018-07-08T07:20:11.777Z,28.66
2018-07-08T07:22:41.280Z,28.69
2018-07-08T07:25:11.233Z,28.44
2018-07-08T07:27:40.573Z,28.83
2018-07-08T07:30:09.916Z,28.97
2018-07-08T07:32:39.378Z,28.70
2018-07-08T07:35:08.699Z,28.76
2018-07-08T07:37:38.043Z,28.63
2018-07-08T07:40:07.486Z,27.79
2018-07-08T07:42:36.775Z,28.03
2018-07-08T07:45:06.803Z,27.98
2018-07-08T07:47:36.177Z,27.97
2018-07-08T07:50:05.673Z,28.53
2018-07-08T07:52:35.110Z,29.49
2018-07-08T07:55:04.582Z,29.15
2018-07-08T07:57:33.896Z,29.47
2018-07-08T08:00:03.375Z,28.73
2018-07-08T08:02:32.717Z,29.05
2018-07-08T08:05:02.027Z,29.61
2018-07-08T08:07:31.420Z,29.75
2018-07-08T08:10:00.780Z,29.09
2018-07-08T08:12:30.174Z,31.29
2018-07-08T08:14:59.533Z,30.44
2018-07-08T08:17:28.859Z,30.08
2018-07-08T08:19:58.215Z,30.02
2018-07-08T08:22:27.545Z,31.07
2018-07-08T08:24:56.984Z,31.49
2018-07-08T08:27:26.406Z,30.33
2018-07-08T08:29:55.764Z,30.16
2018-07-08T08:32:25.162Z,33.37
2018-07-08T08:34:58.561Z,32.21
2018-07-08T08:37:29.434Z,30.40
2018-07-08T08:39:58.833Z,29.19
2018-07-08T08:42:29.197Z,31.35
2018-07-08T08:44:59.101Z,30.26
2018-07-08T08:47:29.173Z,30.79
2018-07-08T08:49:58.683Z,31.50
2018-07-08T08:52:28.176Z,31.77
2018-07-08T08:54:57.664Z,31.19
2018-07-08T08:57:27.062Z,32.48
2018-07-08T08:59:56.701Z,31.14
2018-07-08T09:02:25.999Z,32.00
2018-07-08T09:04:55.381Z,31.10
2018-07-08T09:07:24.815Z,31.82
2018-07-08T09:09:54.328Z,32.09
2018-07-08T09:12:23.651Z,31.44
2018-07-08T09:14:52.974Z,31.05
2018-07-08T09:17:23.411Z,31.79
2018-07-08T09:19:52.725Z,30.99
2018-07-08T09:22:22.090Z,31.24
2018-07-08T09:24:51.531Z,32.56
2018-07-08T09:27:20.842Z,31.04
2018-07-08T09:29:50.204Z,32.36
2018-07-08T09:32:19.536Z,32.64
2018-07-08T09:34:48.876Z,32.21
2018-07-08T09:37:18.319Z,33.32
2018-07-08T09:39:47.684Z,33.17
2018-07-08T09:42:17.267Z,34.47
2018-07-08T09:44:46.656Z,34.34
2018-07-08T09:47:16.007Z,32.07
2018-07-08T09:49:45.376Z,33.67
2018-07-08T09:52:14.765Z,33.31
2018-07-08T09:54:44.224Z,34.28
2018-07-08T09:57:13.525Z,35.23
2018-07-08T09:59:42.862Z,33.78
2018-07-08T10:02:12.302Z,33.28
2018-07-08T10:04:41.738Z,33.01
2018-07-08T10:07:11.025Z,33.86
2018-07-08T10:09:40.320Z,33.59
2018-07-08T10:12:09.695Z,34.72
2018-07-08T10:14:39.047Z,33.60
2018-07-08T10:17:08.426Z,33.58
2018-07-08T10:19:37.857Z,33.75
2018-07-08T10:22:07.263Z,34.21
2018-07-08T10:24:36.572Z,33.24
2018-07-08T10:27:20.186Z,34.14
2018-07-08T10:29:49.515Z,33.44
2018-07-08T10:32:18.823Z,33.58
2018-07-08T10:34:48.370Z,32.98
2018-07-08T10:37:17.821Z,34.08
2018-07-08T10:39:47.334Z,33.96
2018-07-08T10:42:16.739Z,32.78
2018-07-08T10:44:46.106Z,34.05
2018-07-08T10:47:15.514Z,34.34
2018-07-08T10:49:44.864Z,32.56
2018-07-08T10:52:14.230Z,33.74
2018-07-08T10:54:43.571Z,34.42
2018-07-08T10:57:12.964Z,33.52
2018-07-08T10:59:42.318Z,33.97
2018-07-08T11:02:11.777Z,33.56
2018-07-08T11:04:41.128Z,33.22
2018-07-08T11:07:10.505Z,33.78
2018-07-08T11:09:39.887Z,32.25
2018-07-08T11:12:09.275Z,34.33
2018-07-08T11:14:38.746Z,32.74
2018-07-08T11:17:08.154Z,31.98
2018-07-08T11:19:37.581Z,32.32
2018-07-08T11:22:07.042Z,32.95
2018-07-08T11:24:36.483Z,32.11
2018-07-08T11:27:05.823Z,31.10
2018-07-08T11:29:35.206Z,30.16
2018-07-08T11:32:04.767Z,29.41
2018-07-08T11:34:34.161Z,30.14
2018-07-08T11:37:03.577Z,30.10
2018-07-08T11:39:32.985Z,29.94
2018-07-08T11:42:02.659Z,29.27
2018-07-08T11:44:32.030Z,28.53
2018-07-08T11:47:01.514Z,28.83
2018-07-08T11:49:30.951Z,28.47
2018-07-08T11:52:00.330Z,28.46
2018-07-08T11:54:29.855Z,28.66
2018-07-08T11:56:59.408Z,29.30
2018-07-08T11:59:28.848Z,28.51
2018-07-08T12:01:58.403Z,29.64
2018-07-08T12:04:27.886Z,29.72
2018-07-08T12:06:57.306Z,29.29
2018-07-08T12:09:27.050Z,28.76
2018-07-08T12:11:56.729Z,28.42
2018-07-08T12:14:26.165Z,28.45
2018-07-08T12:16:56.091Z,29.10
2018-07-08T12:19:25.623Z,29.30
2018-07-08T12:21:55.348Z,29.33
2018-07-08T12:24:24.781Z,29.07
2018-07-08T12:26:54.478Z,29.34
2018-07-08T12:29:23.879Z,29.09
2018-07-08T12:31:53.242Z,28.82
2018-07-08T12:34:22.633Z,28.58
2018-07-08T12:36:52.059Z,28.19
2018-07-08T12:39:21.640Z,28.55
2018-07-08T12:41:51.222Z,28.43
2018-07-08T12:44:20.819Z,28.76
2018-07-08T12:46:50.287Z,28.57
2018-07-08T12:49:19.801Z,29.62
2018-07-08T12:51:49.878Z,29.50
2018-07-08T12:54:19.560Z,29.03
2018-07-08T12:56:48.952Z,29.72
2018-07-08T12:59:18.420Z,28.58
2018-07-08T13:01:47.835Z,28.66
2018-07-08T13:04:17.493Z,28.38
2018-07-08T13:06:46.894Z,28.83
2018-07-08T13:09:16.420Z,29.03
2018-07-08T13:11:45.943Z,28.55
2018-07-08T13:14:15.537Z,28.73
2018-07-08T13:16:44.913Z,28.08
2018-07-08T13:19:14.480Z,26.76
2018-07-08T13:21:43.922Z,27.73
2018-07-08T13:24:13.378Z,27.35
2018-07-08T13:26:42.811Z,27.58
2018-07-08T13:29:12.254Z,27.95
2018-07-08T13:31:41.659Z,28.33
2018-07-08T13:34:11.125Z,28.62
2018-07-08T13:36:40.562Z,28.58
2018-07-08T13:39:11.004Z,27.99
2018-07-08T13:41:40.607Z,27.79
2018-07-08T13:44:10.361Z,28.48
2018-07-08T13:46:39.973Z,28.83
2018-07-08T13:49:09.388Z,28.87
2018-07-08T13:51:38.922Z,28.17
2018-07-08T13:54:08.340Z,28.60
2018-07-08T13:56:37.936Z,28.77
2018-07-08T13:59:07.749Z,29.00
2018-07-08T14:01:37.123Z,28.23
2018-07-08T14:04:06.651Z,28.60
2018-07-08T14:06:36.166Z,28.24
2018-07-08T14:09:06.458Z,27.95
2018-07-08T14:11:36.207Z,28.16
2018-07-08T14:14:05.618Z,27.79
2018-07-08T14:16:35.161Z,27.43
2018-07-08T14:19:04.777Z,27.92
2018-07-08T14:21:34.089Z,28.44
2018-07-08T14:24:03.669Z,28.48
2018-07-08T14:26:33.216Z,28.30
2018-07-08T14:29:02.783Z,27.72
2018-07-08T14:31:32.225Z,28.12
2018-07-08T14:34:01.854Z,27.74
2018-07-08T14:36:31.397Z,27.32
2018-07-08T14:39:00.897Z,27.82
2018-07-08T14:41:30.531Z,27.94
2018-07-08T14:44:00.128Z,28.50
2018-07-08T14:46:29.626Z,27.64
2018-07-08T14:48:59.126Z,28.05
2018-07-08T14:51:28.810Z,28.66
2018-07-08T14:53:58.307Z,28.80
2018-07-08T14:56:27.666Z,29.00
2018-07-08T14:58:57.138Z,28.63
2018-07-08T15:01:26.651Z,28.76
2018-07-08T15:03:56.106Z,29.65
2018-07-08T15:06:25.679Z,29.13
2018-07-08T15:08:55.072Z,29.15
2018-07-08T15:11:24.618Z,28.81
2018-07-08T15:13:53.990Z,28.83
2018-07-08T15:16:23.376Z,29.25
2018-07-08T15:18:52.892Z,28.96
2018-07-08T15:21:22.251Z,27.78
2018-07-08T15:23:51.649Z,28.36
2018-07-08T15:26:21.141Z,27.43
2018-07-08T15:28:50.879Z,28.37
2018-07-08T15:31:20.546Z,28.50
2018-07-08T15:33:49.968Z,27.50
2018-07-08T15:36:19.676Z,28.07
2018-07-08T15:38:49.015Z,27.98
2018-07-08T15:41:19.447Z,28.20
2018-07-08T15:43:49.034Z,27.71
2018-07-08T15:46:18.672Z,27.66
2018-07-08T15:48:48.050Z,27.87
2018-07-08T15:51:17.513Z,28.55
2018-07-08T15:53:47.100Z,28.01
2018-07-08T15:56:16.550Z,28.49
2018-07-08T15:58:45.944Z,29.00
2018-07-08T16:01:15.361Z,28.04
2018-07-08T16:03:44.844Z,28.05
2018-07-08T16:06:14.288Z,27.89
2018-07-08T16:08:43.931Z,27.34
2018-07-08T16:11:14.533Z,27.15
2018-07-08T16:13:44.083Z,27.33
2018-07-08T16:16:13.480Z,28.14
2018-07-08T16:18:42.972Z,28.01
2018-07-08T16:21:12.519Z,28.48
2018-07-08T16:23:41.983Z,28.45
2018-07-08T16:26:11.435Z,28.23
2018-07-08T16:28:40.940Z,27.09
2018-07-08T16:31:10.353Z,28.35
2018-07-08T16:33:39.765Z,28.04
2018-07-08T16:36:09.123Z,28.29
2018-07-08T16:38:38.599Z,28.65
2018-07-08T16:41:08.042Z,28.23
2018-07-08T16:43:37.427Z,28.23
2018-07-08T16:46:06.916Z,27.05
2018-07-08T16:48:36.425Z,27.09
2018-07-08T16:51:05.807Z,27.33
2018-07-08T16:53:35.312Z,27.67
2018-07-08T16:56:04.899Z,27.48
2018-07-08T16:58:34.210Z,28.12
2018-07-08T17:01:03.558Z,27.86
2018-07-08T17:03:32.949Z,27.02
2018-07-08T17:06:02.412Z,27.19
2018-07-08T17:08:31.860Z,27.12
2018-07-08T17:11:01.222Z,26.89
2018-07-08T17:13:30.585Z,26.62
2018-07-08T17:16:00.002Z,27.46
2018-07-08T17:18:30.640Z,26.63
2018-07-08T17:21:00.796Z,26.91
2018-07-08T17:23:30.876Z,27.51
2018-07-08T17:26:00.325Z,26.99
2018-07-08T17:28:29.718Z,26.79
2018-07-08T17:30:59.709Z,26.97
2018-07-08T17:33:29.136Z,26.87
2018-07-08T17:35:58.554Z,27.16
2018-07-08T17:38:28.272Z,26.88
2018-07-08T17:40:57.822Z,26.53
2018-07-08T17:43:27.488Z,26.46
2018-07-08T17:45:56.816Z,27.00
2018-07-08T17:48:26.112Z,26.74
2018-07-08T17:50:55.528Z,26.95
2018-07-08T17:53:24.935Z,27.24
2018-07-08T17:55:54.316Z,26.97
2018-07-08T17:58:23.702Z,26.77
2018-07-08T18:00:53.005Z,27.44
2018-07-08T18:03:22.511Z,26.94
2018-07-08T18:05:51.690Z,26.83
2018-07-08T18:08:21.241Z,26.41
2018-07-08T18:10:50.596Z,26.39
2018-07-08T18:13:19.886Z,26.65
2018-07-08T18:15:49.188Z,26.39
2018-07-08T18:18:18.520Z,26.46
2018-07-08T18:20:47.925Z,26.39
2018-07-08T18:23:17.272Z,26.20
2018-07-08T18:25:46.601Z,25.71
2018-07-08T18:28:15.934Z,26.15
2018-07-08T18:30:45.326Z,26.88
2018-07-08T18:33:14.719Z,26.31
2018-07-08T18:35:44.222Z,26.49
2018-07-08T18:38:13.956Z,26.66
2018-07-08T18:40:43.325Z,26.10
2018-07-08T18:43:12.656Z,25.94
2018-07-08T18:45:41.995Z,25.93
2018-07-08T18:48:11.330Z,26.05
2018-07-08T18:50:40.712Z,26.25
2018-07-08T18:53:10.053Z,25.76
2018-07-08T18:55:39.384Z,26.06
2018-07-08T18:58:08.797Z,25.92
2018-07-08T19:00:38.132Z,26.24
2018-07-08T19:03:07.549Z,25.31
2018-07-08T19:05:36.895Z,25.45
2018-07-08T19:08:06.401Z,25.76
2018-07-08T19:10:35.836Z,25.82
2018-07-08T19:13:05.206Z,25.84
2018-07-08T19:15:34.605Z,25.27
2018-07-08T19:18:03.967Z,25.16
2018-07-08T19:20:33.315Z,24.93
2018-07-08T19:23:02.650Z,24.63
2018-07-08T19:25:31.993Z,24.47
2018-07-08T19:28:01.434Z,24.28
2018-07-08T19:30:30.892Z,24.15
2018-07-08T19:33:00.315Z,23.87
2018-07-08T19:35:29.919Z,23.74
2018-07-08T19:37:59.274Z,23.40
2018-07-08T19:40:28.649Z,23.34
2018-07-08T19:42:58.002Z,23.29
2018-07-08T19:45:27.362Z,22.98
2018-07-08T19:47:56.710Z,22.69
2018-07-08T19:50:26.062Z,22.58
2018-07-08T19:52:55.438Z,22.52
2018-07-08T19:55:24.819Z,22.73
2018-07-08T19:57:54.709Z,22.65
2018-07-08T20:00:24.097Z,22.62
2018-07-08T20:02:53.435Z,22.76
2018-07-08T20:05:22.806Z,22.40
2018-07-08T20:07:52.301Z,22.44
2018-07-08T20:10:21.730Z,21.93
2018-07-08T20:12:51.049Z,22.28
2018-07-08T20:15:20.451Z,21.63
2018-07-08T20:17:49.865Z,21.80
2018-07-08T20:20:19.225Z,21.85
2018-07-08T20:22:48.646Z,21.55
2018-07-08T20:25:18.652Z,21.47
2018-07-08T20:27:48.109Z,21.48
2018-07-08T20:30:17.420Z,21.50
2018-07-08T20:32:46.906Z,21.72
2018-07-08T20:35:16.240Z,21.67
2018-07-08T20:37:45.534Z,21.11
2018-07-08T20:40:14.900Z,20.91
2018-07-08T20:42:44.282Z,21.03
2018-07-08T20:45:13.585Z,21.08
2018-07-08T20:47:42.913Z,20.86
2018-07-08T20:50:12.512Z,20.95
2018-07-08T20:52:41.871Z,20.87
2018-07-08T20:55:11.160Z,20.54
2018-07-08T20:57:40.466Z,20.85
2018-07-08T21:00:09.829Z,20.82
2018-07-08T21:02:39.166Z,20.35
2018-07-08T21:05:08.540Z,20.35
2018-07-08T21:07:37.869Z,20.27
2018-07-08T21:10:07.669Z,20.08
2018-07-08T21:12:37.057Z,20.16
2018-07-08T21:15:06.600Z,20.46
2018-07-08T21:17:35.945Z,19.90
2018-07-08T21:20:05.290Z,20.15
2018-07-08T21:22:34.671Z,20.33
2018-07-08T21:25:04.025Z,20.32
2018-07-08T21:27:33.392Z,19.70
2018-07-08T21:30:03.800Z,19.45
2018-07-08T21:32:33.145Z,19.36
2018-07-08T21:35:02.545Z,19.13
2018-07-08T21:37:31.878Z,19.28
2018-07-08T21:40:01.305Z,19.61
2018-07-08T21:42:31.706Z,19.57
2018-07-08T21:45:01.077Z,19.42
2018-07-08T21:47:30.460Z,19.58
2018-07-08T21:49:59.794Z,19.34
2018-07-08T21:52:29.193Z,19.14
2018-07-08T21:54:58.609Z,18.99
2018-07-08T21:57:28.033Z,19.21
2018-07-08T21:59:57.404Z,19.19
2018-07-08T22:02:26.752Z,19.22
2018-07-08T22:04:56.106Z,18.60
2018-07-08T22:07:29.591Z,19.22
2018-07-08T22:09:58.924Z,19.19
2018-07-08T22:12:28.309Z,19.27
2018-07-08T22:14:57.658Z,18.99
2018-07-08T22:17:26.982Z,19.19
2018-07-08T22:19:56.321Z,18.97
2018-07-08T22:22:25.636Z,18.69
2018-07-08T22:24:55.091Z,18.92
2018-07-08T22:27:24.408Z,18.70
2018-07-08T22:29:54.652Z,18.81
2018-07-08T22:32:24.245Z,18.71
2018-07-08T22:34:53.545Z,18.60
2018-07-08T22:37:23.052Z,18.46
2018-07-08T22:39:52.387Z,18.55
2018-07-08T22:42:21.702Z,18.46
2018-07-08T22:44:51.012Z,18.54
2018-07-08T22:47:20.375Z,18.35
2018-07-08T22:49:49.773Z,18.65
2018-07-08T22:52:19.111Z,18.73
2018-07-08T22:54:48.421Z,18.45
2018-07-08T22:57:17.826Z,18.43
2018-07-08T22:59:58.313Z,18.59
2018-07-08T23:02:38.314Z,18.59
2018-07-08T23:05:07.652Z,18.69
2018-07-08T23:07:37.346Z,18.56
2018-07-08T23:10:06.643Z,18.44
2018-07-08T23:12:36.047Z,18.67
2018-07-08T23:15:05.507Z,18.39
2018-07-08T23:17:34.893Z,18.00
2018-07-08T23:20:04.323Z,17.89
2018-07-08T23:22:44.738Z,18.39
2018-07-08T23:25:14.036Z,18.33
2018-07-08T23:27:43.309Z,18.02
2018-07-08T23:30:12.614Z,18.24
2018-07-08T23:32:48.266Z,18.03
2018-07-08T23:35:18.049Z,18.13
2018-07-08T23:37:47.325Z,18.17
2018-07-08T23:40:16.626Z,17.96
2018-07-08T23:42:45.953Z,18.06
2018-07-08T23:45:18.238Z,17.72
2018-07-08T23:47:47.634Z,17.88
2018-07-08T23:50:16.926Z,17.97
2018-07-08T23:52:46.255Z,17.59
2018-07-08T23:55:15.576Z,17.30
2018-07-08T23:57:44.890Z,17.04
